createdAt,value
2022-11-26T00:02:30.018Z,89.89
2022-11-26T00:04:59.065Z,90.17
2022-11-26T00:07:29.934Z,90.13
2022-11-26T00:09:58.182Z,89.66
2022-11-26T00:12:31.756Z,90.26
2022-11-26T00:15:15.196Z,89.77
2022-11-26T00:17:41.664Z,89.71
2022-11-26T00:20:08.732Z,89.85
2022-11-26T00:22:44.438Z,90.28
2022-11-26T00:25:39.180Z,90.07
2022-11-26T00:28:23.924Z,90.16
2022-11-26T00:30:50.403Z,89.40
2022-11-26T00:33:16.815Z,89.59
2022-11-26T00:35:43.309Z,89.64
2022-11-26T00:38:15.824Z,89.38
2022-11-26T00:40:42.328Z,89.88
2022-11-26T00:43:11.947Z,90.25
2022-11-26T00:45:38.595Z,90.11
2022-11-26T00:48:05.344Z,90.82
2022-11-26T00:50:36.865Z,90.34
2022-11-26T00:53:05.149Z,90.24
2022-11-26T00:55:38.001Z,90.46
2022-11-26T00:58:06.418Z,90.18
2022-11-26T01:00:34.984Z,90.37
2022-11-26T01:03:02.352Z,90.40
2022-11-26T01:05:31.927Z,90.18
2022-11-26T01:08:01.117Z,90.25
2022-11-26T01:10:29.736Z,90.29
2022-11-26T01:12:56.742Z,90.26
2022-11-26T01:15:25.283Z,90.49
2022-11-26T01:17:52.934Z,90.11
2022-11-26T01:20:28.954Z,90.29
2022-11-26T01:22:57.378Z,90.14
2022-11-26T01:25:25.916Z,90.21
2022-11-26T01:27:53.245Z,90.00
2022-11-26T01:30:25.226Z,90.08
2022-11-26T01:32:52.403Z,90.02
2022-11-26T01:35:20.112Z,89.58
2022-11-26T01:37:47.922Z,89.66
2022-11-26T01:40:26.467Z,90.18
2022-11-26T01:42:59.268Z,90.01
2022-11-26T01:45:25.909Z,89.86
2022-11-26T01:47:52.835Z,89.90
2022-11-26T01:50:28.783Z,89.78
2022-11-26T01:52:57.960Z,89.49
2022-11-26T01:55:24.625Z,89.53
2022-11-26T01:57:51.588Z,89.53
2022-11-26T02:00:19.332Z,90.06
2022-11-26T02:02:45.946Z,89.61
2022-11-26T02:05:28.139Z,90.00
2022-11-26T02:07:57.078Z,90.11
2022-11-26T02:10:23.780Z,89.92
2022-11-26T02:12:51.205Z,90.01
2022-11-26T02:15:17.880Z,89.65
2022-11-26T02:17:48.983Z,90.05
2022-11-26T02:20:27.485Z,89.98
2022-11-26T02:23:17.738Z,90.57
2022-11-26T02:26:02.911Z,89.99
2022-11-26T02:28:41.514Z,90.23
2022-11-26T02:31:19.464Z,90.26
2022-11-26T02:33:57.141Z,90.71
2022-11-26T02:36:32.272Z,90.31
2022-11-26T02:39:12.774Z,90.38
2022-11-26T02:41:45.133Z,90.21
2022-11-26T02:44:13.261Z,90.26
2022-11-26T02:46:41.395Z,90.70
2022-11-26T02:49:10.938Z,90.45
2022-11-26T02:51:38.689Z,90.24
2022-11-26T02:54:07.400Z,90.80
2022-11-26T02:56:34.833Z,91.14
2022-11-26T02:59:02.156Z,90.55
2022-11-26T03:01:47.206Z,91.47
2022-11-26T03:04:18.840Z,91.02
2022-11-26T03:06:46.573Z,91.15
2022-11-26T03:09:15.667Z,90.47
2022-11-26T03:11:42.131Z,90.84
2022-11-26T03:14:08.635Z,91.14
2022-11-26T03:16:35.124Z,91.20
2022-11-26T03:19:01.647Z,91.10
2022-11-26T03:21:28.111Z,90.41
2022-11-26T03:23:54.941Z,90.79
2022-11-26T03:26:21.390Z,90.87
2022-11-26T03:28:47.831Z,90.55
2022-11-26T03:31:14.328Z,91.16
2022-11-26T03:33:40.863Z,90.34
2022-11-26T03:36:07.767Z,90.33
2022-11-26T03:38:34.218Z,91.10
2022-11-26T03:41:03.645Z,90.81
2022-11-26T03:43:30.367Z,90.62
2022-11-26T03:45:57.312Z,90.87
2022-11-26T03:48:23.773Z,90.11
2022-11-26T03:50:50.270Z,90.86
2022-11-26T03:53:16.759Z,90.57
2022-11-26T03:55:43.372Z,90.79
2022-11-26T03:58:09.858Z,90.46
2022-11-26T04:00:36.346Z,90.59
2022-11-26T04:03:02.857Z,90.67
2022-11-26T04:05:29.377Z,89.93
2022-11-26T04:07:55.891Z,89.88
2022-11-26T04:10:22.414Z,90.30
2022-11-26T04:12:48.857Z,90.24
2022-11-26T04:15:15.438Z,90.01
2022-11-26T04:17:41.991Z,90.11
2022-11-26T04:20:08.886Z,89.86
2022-11-26T04:22:35.360Z,90.41
2022-11-26T04:25:01.936Z,90.57
2022-11-26T04:27:28.361Z,90.56
2022-11-26T04:29:54.830Z,90.62
2022-11-26T04:32:21.691Z,90.34
2022-11-26T04:34:48.125Z,90.80
2022-11-26T04:37:14.640Z,90.28
2022-11-26T04:39:41.122Z,90.43
2022-11-26T04:42:07.612Z,90.09
2022-11-26T04:44:34.067Z,90.47
2022-11-26T04:47:00.534Z,90.52
2022-11-26T04:49:27.064Z,90.49
2022-11-26T04:51:53.521Z,90.72
2022-11-26T04:54:20.005Z,90.62
2022-11-26T04:56:46.495Z,90.71
2022-11-26T04:59:12.989Z,90.77
2022-11-26T05:01:39.604Z,91.16
2022-11-26T05:04:06.157Z,91.25
2022-11-26T05:06:32.654Z,91.34
2022-11-26T05:08:59.318Z,91.43
2022-11-26T05:11:25.763Z,90.92
2022-11-26T05:13:52.224Z,91.74
2022-11-26T05:16:18.822Z,91.00
2022-11-26T05:18:45.311Z,91.33
2022-11-26T05:21:11.781Z,91.15
2022-11-26T05:23:38.262Z,91.09
2022-11-26T05:26:04.792Z,90.86
2022-11-26T05:28:31.333Z,90.79
2022-11-26T05:30:59.921Z,90.82
2022-11-26T05:33:27.197Z,91.39
2022-11-26T05:35:53.951Z,90.60
2022-11-26T05:38:20.486Z,90.79
2022-11-26T05:40:47.018Z,90.94
2022-11-26T05:43:13.552Z,91.25
2022-11-26T05:45:40.036Z,90.85
2022-11-26T05:48:06.744Z,91.23
2022-11-26T05:50:33.935Z,90.88
2022-11-26T05:53:00.698Z,90.94
2022-11-26T05:55:27.228Z,90.66
2022-11-26T05:57:53.715Z,90.89
2022-11-26T06:00:20.315Z,90.86
2022-11-26T06:02:46.961Z,90.81
2022-11-26T06:05:13.848Z,90.90
2022-11-26T06:07:44.552Z,90.64
2022-11-26T06:10:12.571Z,91.00
2022-11-26T06:12:39.156Z,90.98
2022-11-26T06:15:06.312Z,90.77
2022-11-26T06:17:32.870Z,90.95
2022-11-26T06:19:59.823Z,91.34
2022-11-26T06:22:26.407Z,91.28
2022-11-26T06:24:52.921Z,91.64
2022-11-26T06:27:19.396Z,91.46
2022-11-26T06:29:45.839Z,90.87
2022-11-26T06:32:12.403Z,91.33
2022-11-26T06:34:39.248Z,91.11
2022-11-26T06:37:06.676Z,91.50
2022-11-26T06:39:33.190Z,91.31
2022-11-26T06:41:59.648Z,91.53
2022-11-26T06:44:26.151Z,91.66
2022-11-26T06:46:52.592Z,91.65
2022-11-26T06:49:19.071Z,91.42
2022-11-26T06:51:45.519Z,91.90
2022-11-26T06:54:11.957Z,91.43
2022-11-26T06:56:39.378Z,91.52
2022-11-26T06:59:06.459Z,91.76
2022-11-26T07:01:33.040Z,92.15
2022-11-26T07:03:59.589Z,91.63
2022-11-26T07:06:28.662Z,91.36
2022-11-26T07:08:57.161Z,91.11
2022-11-26T07:11:24.876Z,91.41
2022-11-26T07:13:52.096Z,92.09
2022-11-26T07:16:18.684Z,92.02
2022-11-26T07:18:50.471Z,92.17
2022-11-26T07:21:18.200Z,91.42
2022-11-26T07:23:44.986Z,92.09
2022-11-26T07:26:12.689Z,92.13
2022-11-26T07:28:39.461Z,91.66
2022-11-26T07:31:26.288Z,92.51
2022-11-26T07:33:52.976Z,92.04
2022-11-26T07:36:21.970Z,91.55
2022-11-26T07:38:49.124Z,91.94
2022-11-26T07:41:19.056Z,92.32
2022-11-26T07:43:46.138Z,91.62
2022-11-26T07:46:15.609Z,92.17
2022-11-26T07:48:42.130Z,92.39
2022-11-26T07:51:16.263Z,91.69
2022-11-26T07:53:42.704Z,91.79
2022-11-26T07:56:09.343Z,91.91
2022-11-26T07:58:36.282Z,91.44
2022-11-26T08:01:17.601Z,91.64
2022-11-26T08:03:47.051Z,92.38
2022-11-26T08:06:16.160Z,92.05
2022-11-26T08:08:42.875Z,91.86
2022-11-26T08:11:16.739Z,92.64
2022-11-26T08:13:43.919Z,91.41
2022-11-26T08:16:11.466Z,91.05
2022-11-26T08:18:38.066Z,91.23
2022-11-26T08:21:04.900Z,90.91
2022-11-26T08:23:32.348Z,91.44
2022-11-26T08:26:21.535Z,91.92
2022-11-26T08:28:47.410Z,91.47
2022-11-26T08:31:16.697Z,90.66
2022-11-26T08:33:44.026Z,91.97
2022-11-26T08:36:11.510Z,91.51
2022-11-26T08:38:38.415Z,91.21
2022-11-26T08:41:07.485Z,90.29
2022-11-26T08:44:08.327Z,90.67
2022-11-26T08:46:25.777Z,90.75
2022-11-26T08:48:54.522Z,90.61
2022-11-26T08:51:21.111Z,91.36
2022-11-26T08:53:47.578Z,90.65
2022-11-26T08:56:14.183Z,90.61
2022-11-26T08:58:44.170Z,91.56
2022-11-26T09:01:19.582Z,91.62
2022-11-26T09:03:50.653Z,91.23
2022-11-26T09:06:18.313Z,90.59
2022-11-26T09:09:03.401Z,92.19
2022-11-26T09:11:29.992Z,91.37
2022-11-26T09:13:57.960Z,91.52
2022-11-26T09:16:25.510Z,90.97
2022-11-26T09:18:52.784Z,90.86
2022-11-26T09:21:21.881Z,91.48
2022-11-26T09:23:48.362Z,91.97
2022-11-26T09:26:14.873Z,91.59
2022-11-26T09:28:41.343Z,90.70
2022-11-26T09:31:07.904Z,91.19
2022-11-26T09:33:34.410Z,90.51
2022-11-26T09:36:06.030Z,90.03
2022-11-26T09:38:33.235Z,90.95
2022-11-26T09:41:10.544Z,91.31
2022-11-26T09:44:03.352Z,91.31
2022-11-26T09:47:13.298Z,90.74
2022-11-26T09:49:52.130Z,90.08
2022-11-26T09:52:20.991Z,89.87
2022-11-26T09:54:51.218Z,90.38
2022-11-26T09:57:27.926Z,90.60
2022-11-26T09:59:56.107Z,89.65
2022-11-26T10:02:25.207Z,89.70
2022-11-26T10:04:52.104Z,89.91
2022-11-26T10:07:57.703Z,89.57
2022-11-26T10:10:42.132Z,88.84
2022-11-26T10:13:23.777Z,88.44
2022-11-26T10:16:14.766Z,88.66
2022-11-26T10:19:12.181Z,87.78
2022-11-26T10:22:02.266Z,87.66
2022-11-26T10:24:49.696Z,87.26
2022-11-26T10:27:19.052Z,87.61
2022-11-26T10:29:59.190Z,87.25
2022-11-26T10:32:32.621Z,87.29
2022-11-26T10:34:59.166Z,87.04
2022-11-26T10:37:28.103Z,86.23
2022-11-26T10:40:31.284Z,85.75
2022-11-26T10:43:09.674Z,86.45
2022-11-26T10:45:36.620Z,86.28
2022-11-26T10:48:23.552Z,85.67
2022-11-26T10:51:01.562Z,85.32
2022-11-26T10:53:31.410Z,85.92
2022-11-26T10:56:05.252Z,85.60
2022-11-26T10:58:39.837Z,84.44
2022-11-26T11:01:08.144Z,84.41
2022-11-26T11:04:07.212Z,84.34
2022-11-26T11:06:43.529Z,83.78
2022-11-26T11:09:30.706Z,83.18
2022-11-26T11:12:25.656Z,83.66
2022-11-26T11:14:54.030Z,84.03
2022-11-26T11:17:39.830Z,83.24
2022-11-26T11:20:15.609Z,83.03
2022-11-26T11:22:46.944Z,84.11
2022-11-26T11:25:25.716Z,83.42
2022-11-26T11:27:55.124Z,82.47
2022-11-26T11:30:35.440Z,82.76
2022-11-26T11:33:25.871Z,81.85
2022-11-26T11:36:02.981Z,81.91
2022-11-26T11:38:32.468Z,82.31
2022-11-26T11:41:04.481Z,82.64
2022-11-26T11:43:35.619Z,81.42
2022-11-26T11:46:12.682Z,81.48
2022-11-26T11:48:51.290Z,81.46
2022-11-26T11:51:33.129Z,81.13
2022-11-26T11:54:20.222Z,81.07
2022-11-26T11:56:54.487Z,80.54
2022-11-26T11:59:58.244Z,79.41
2022-11-26T12:02:25.988Z,81.00
2022-11-26T12:05:06.114Z,80.67
2022-11-26T12:07:41.771Z,80.02
2022-11-26T12:10:25.372Z,79.31
2022-11-26T12:12:56.400Z,79.43
2022-11-26T12:15:28.765Z,79.51
2022-11-26T12:18:06.684Z,79.26
2022-11-26T12:20:44.288Z,79.45
2022-11-26T12:23:24.473Z,78.44
2022-11-26T12:26:03.550Z,79.84
2022-11-26T12:28:51.510Z,77.39
2022-11-26T12:31:54.915Z,77.58
2022-11-26T12:34:39.194Z,76.65
2022-11-26T12:37:24.160Z,78.58
2022-11-26T12:40:23.790Z,77.44
2022-11-26T12:42:58.659Z,77.65
2022-11-26T12:45:41.225Z,78.44
2022-11-26T12:48:26.304Z,77.94
2022-11-26T12:51:02.279Z,77.87
2022-11-26T12:53:38.265Z,77.32
2022-11-26T12:56:14.680Z,77.10
2022-11-26T12:58:52.150Z,77.22
2022-11-26T13:01:18.779Z,77.65
2022-11-26T13:03:45.445Z,77.13
2022-11-26T13:06:18.293Z,77.12
2022-11-26T13:09:09.245Z,75.91
2022-11-26T13:11:50.746Z,76.55
2022-11-26T13:14:32.795Z,76.68
2022-11-26T13:17:08.853Z,75.92
2022-11-26T13:19:47.847Z,76.56
2022-11-26T13:22:29.513Z,76.41
2022-11-26T13:25:20.697Z,77.00
2022-11-26T13:27:56.098Z,76.88
2022-11-26T13:30:31.676Z,77.30
2022-11-26T13:33:17.109Z,77.12
2022-11-26T13:36:25.084Z,76.71
2022-11-26T13:38:51.471Z,77.26
2022-11-26T13:41:59.844Z,77.27
2022-11-26T13:44:53.842Z,78.07
2022-11-26T13:47:39.117Z,77.80
2022-11-26T13:50:40.399Z,77.17
2022-11-26T13:53:15.547Z,78.15
2022-11-26T13:55:52.013Z,77.33
2022-11-26T13:58:30.206Z,77.78
2022-11-26T14:00:56.866Z,78.43
2022-11-26T14:03:48.523Z,77.93
2022-11-26T14:06:15.553Z,78.00
2022-11-26T14:08:45.098Z,77.94
2022-11-26T14:11:16.092Z,77.87
2022-11-26T14:14:24.569Z,77.37
2022-11-26T14:17:09.038Z,77.63
2022-11-26T14:19:41.563Z,77.64
2022-11-26T14:22:11.083Z,77.64
2022-11-26T14:24:49.840Z,77.63
2022-11-26T14:27:24.844Z,77.24
2022-11-26T14:30:03.326Z,77.52
2022-11-26T14:32:35.700Z,77.87
2022-11-26T14:35:02.143Z,77.72
2022-11-26T14:37:30.842Z,77.81
2022-11-26T14:39:58.785Z,77.91
2022-11-26T14:42:25.299Z,78.22
2022-11-26T14:45:15.472Z,77.35
2022-11-26T14:47:44.961Z,78.07
2022-11-26T14:50:16.152Z,78.47
2022-11-26T14:52:44.036Z,78.20
2022-11-26T14:55:13.463Z,78.56
2022-11-26T14:58:14.502Z,78.25
2022-11-26T15:00:41.048Z,78.89
2022-11-26T15:03:26.235Z,78.61
2022-11-26T15:05:52.749Z,79.51
2022-11-26T15:08:20.519Z,79.47
2022-11-26T15:10:52.796Z,79.25
2022-11-26T15:13:28.129Z,79.60
2022-11-26T15:15:57.115Z,79.36
2022-11-26T15:18:32.993Z,79.77
2022-11-26T15:21:02.209Z,79.66
2022-11-26T15:23:37.717Z,79.81
2022-11-26T15:26:05.040Z,80.25
2022-11-26T15:28:38.864Z,80.37
2022-11-26T15:31:08.475Z,80.20
2022-11-26T15:33:36.873Z,80.21
2022-11-26T15:36:05.370Z,80.13
2022-11-26T15:38:34.321Z,80.18
2022-11-26T15:41:03.831Z,80.68
2022-11-26T15:43:44.932Z,80.40
2022-11-26T15:46:15.609Z,80.59
2022-11-26T15:48:52.107Z,80.38
2022-11-26T15:51:35.218Z,80.53
2022-11-26T15:54:04.304Z,80.25
2022-11-26T15:56:36.240Z,80.81
2022-11-26T15:59:07.487Z,80.70
2022-11-26T16:01:36.414Z,80.30
2022-11-26T16:04:06.318Z,80.60
2022-11-26T16:06:40.504Z,81.29
2022-11-26T16:09:13.550Z,80.70
2022-11-26T16:11:56.819Z,80.75
2022-11-26T16:14:38.341Z,81.07
2022-11-26T16:17:17.085Z,81.76
2022-11-26T16:19:50.742Z,81.35
2022-11-26T16:22:20.844Z,80.99
2022-11-26T16:25:06.633Z,81.20
2022-11-26T16:27:33.768Z,81.21
2022-11-26T16:30:16.615Z,81.62
2022-11-26T16:32:43.061Z,81.19
2022-11-26T16:35:37.434Z,81.28
2022-11-26T16:37:56.853Z,81.38
2022-11-26T16:40:24.289Z,81.70
2022-11-26T16:42:51.124Z,81.40
2022-11-26T16:45:18.885Z,81.60
2022-11-26T16:47:54.314Z,81.87
2022-11-26T16:50:26.411Z,81.23
2022-11-26T16:52:54.275Z,81.35
2022-11-26T16:55:25.823Z,81.50
2022-11-26T16:57:56.822Z,81.46
2022-11-26T17:00:26.028Z,81.67
2022-11-26T17:02:53.275Z,81.66
2022-11-26T17:05:20.873Z,81.42
2022-11-26T17:07:57.016Z,81.65
2022-11-26T17:10:26.428Z,81.39
2022-11-26T17:12:52.904Z,81.66
2022-11-26T17:15:19.439Z,81.44
2022-11-26T17:17:46.312Z,81.55
2022-11-26T17:20:19.033Z,81.66
2022-11-26T17:22:46.193Z,81.98
2022-11-26T17:25:13.521Z,81.72
2022-11-26T17:27:41.698Z,81.85
2022-11-26T17:30:15.021Z,82.02
2022-11-26T17:32:41.656Z,81.83
2022-11-26T17:35:08.268Z,82.13
2022-11-26T17:37:35.549Z,82.00
2022-11-26T17:40:03.351Z,82.65
2022-11-26T17:42:33.584Z,81.75
2022-11-26T17:45:03.467Z,82.42
2022-11-26T17:47:30.099Z,82.74
2022-11-26T17:49:56.651Z,83.32
2022-11-26T17:52:23.097Z,83.43
2022-11-26T17:54:49.585Z,83.30
2022-11-26T17:57:16.808Z,83.50
2022-11-26T17:59:44.001Z,83.64
2022-11-26T18:02:10.993Z,83.62
2022-11-26T18:04:37.839Z,83.67
2022-11-26T18:07:06.328Z,83.65
2022-11-26T18:09:33.411Z,83.75
2022-11-26T18:12:01.022Z,84.34
2022-11-26T18:14:28.176Z,83.80
2022-11-26T18:16:55.144Z,83.93
2022-11-26T18:19:23.360Z,83.76
2022-11-26T18:21:51.069Z,83.93
2022-11-26T18:24:18.042Z,83.68
2022-11-26T18:26:44.523Z,83.87
2022-11-26T18:29:11.480Z,83.96
2022-11-26T18:31:39.866Z,84.04
2022-11-26T18:34:07.503Z,84.09
2022-11-26T18:36:34.012Z,84.29
2022-11-26T18:39:02.303Z,84.25
2022-11-26T18:41:28.784Z,84.33
2022-11-26T18:43:55.237Z,84.35
2022-11-26T18:46:22.035Z,84.01
2022-11-26T18:48:50.242Z,84.32
2022-11-26T18:51:17.394Z,84.25
2022-11-26T18:53:44.820Z,83.89
2022-11-26T18:56:15.109Z,84.29
2022-11-26T18:58:42.187Z,84.15
2022-11-26T19:01:17.221Z,83.78
2022-11-26T19:03:44.431Z,83.91
2022-11-26T19:06:15.054Z,84.38
2022-11-26T19:08:41.660Z,83.72
2022-11-26T19:11:10.177Z,83.78
2022-11-26T19:13:37.687Z,83.58
2022-11-26T19:16:15.794Z,83.43
2022-11-26T19:18:43.576Z,83.17
2022-11-26T19:21:23.352Z,83.60
2022-11-26T19:23:50.382Z,83.51
2022-11-26T19:26:17.617Z,83.55
2022-11-26T19:28:44.512Z,84.05
2022-11-26T19:31:14.445Z,83.19
2022-11-26T19:33:41.417Z,83.14
2022-11-26T19:36:11.553Z,83.48
2022-11-26T19:38:38.459Z,83.66
2022-11-26T19:41:06.009Z,83.40
2022-11-26T19:43:40.522Z,82.89
2022-11-26T19:46:08.825Z,82.97
2022-11-26T19:48:37.489Z,82.81
2022-11-26T19:51:08.605Z,83.46
2022-11-26T19:53:35.982Z,82.89
2022-11-26T19:56:08.821Z,82.94
2022-11-26T19:58:36.876Z,82.83
2022-11-26T20:01:07.436Z,82.88
2022-11-26T20:03:37.545Z,82.83
2022-11-26T20:06:06.643Z,82.71
2022-11-26T20:08:34.611Z,82.64
2022-11-26T20:11:07.083Z,83.13
2022-11-26T20:13:36.152Z,82.54
2022-11-26T20:16:11.722Z,82.88
2022-11-26T20:18:39.888Z,82.67
2022-11-26T20:21:09.647Z,82.87
2022-11-26T20:23:37.177Z,83.33
2022-11-26T20:26:12.519Z,82.92
2022-11-26T20:28:38.955Z,82.45
2022-11-26T20:31:06.038Z,83.42
2022-11-26T20:33:32.611Z,82.49
2022-11-26T20:35:59.049Z,82.56
2022-11-26T20:38:25.696Z,82.69
2022-11-26T20:40:52.130Z,82.77
2022-11-26T20:43:18.601Z,82.17
2022-11-26T20:45:45.157Z,82.58
2022-11-26T20:48:11.751Z,82.58
2022-11-26T20:50:38.274Z,82.33
2022-11-26T20:53:04.713Z,82.27
2022-11-26T20:55:31.270Z,82.25
2022-11-26T20:57:57.725Z,81.72
2022-11-26T21:00:27.575Z,81.71
2022-11-26T21:02:54.377Z,81.14
2022-11-26T21:05:22.520Z,81.11
2022-11-26T21:07:50.804Z,81.20
2022-11-26T21:10:18.124Z,80.67
2022-11-26T21:12:44.661Z,80.98
2022-11-26T21:15:11.471Z,80.35
2022-11-26T21:17:38.087Z,80.36
2022-11-26T21:20:06.330Z,80.42
2022-11-26T21:22:32.930Z,79.96
2022-11-26T21:24:59.373Z,80.43
2022-11-26T21:27:25.833Z,79.19
2022-11-26T21:29:52.321Z,79.48
2022-11-26T21:32:18.828Z,79.92
2022-11-26T21:34:45.284Z,79.59
2022-11-26T21:37:11.770Z,80.24
2022-11-26T21:39:38.597Z,80.22
2022-11-26T21:42:05.278Z,79.86
2022-11-26T21:44:31.707Z,80.64
2022-11-26T21:46:58.258Z,80.11
2022-11-26T21:49:28.015Z,79.98
2022-11-26T21:51:54.500Z,79.40
2022-11-26T21:54:20.971Z,79.31
2022-11-26T21:56:47.516Z,79.42
2022-11-26T21:59:14.193Z,79.52
2022-11-26T22:01:41.212Z,79.37
2022-11-26T22:04:12.792Z,79.84
2022-11-26T22:06:39.473Z,80.61
2022-11-26T22:09:06.427Z,80.82
2022-11-26T22:11:38.178Z,80.97
2022-11-26T22:14:05.929Z,81.33
2022-11-26T22:16:33.306Z,81.52
2022-11-26T22:19:01.128Z,82.04
2022-11-26T22:21:34.172Z,82.16
2022-11-26T22:24:01.808Z,81.97
2022-11-26T22:26:29.634Z,81.95
2022-11-26T22:28:56.681Z,83.19
2022-11-26T22:31:25.975Z,83.07
2022-11-26T22:33:58.216Z,83.89
2022-11-26T22:36:25.575Z,84.37
2022-11-26T22:38:52.475Z,84.40
2022-11-26T22:41:20.051Z,85.13
2022-11-26T22:43:46.589Z,84.93
2022-11-26T22:46:16.301Z,85.26
2022-11-26T22:48:43.330Z,85.80
2022-11-26T22:51:10.658Z,85.98
2022-11-26T22:53:37.301Z,86.97
2022-11-26T22:56:05.208Z,88.06
2022-11-26T22:58:33.645Z,87.76
2022-11-26T23:01:07.972Z,88.88
2022-11-26T23:03:36.558Z,87.86
2022-11-26T23:06:05.940Z,87.97
2022-11-26T23:08:32.651Z,89.25
2022-11-26T23:11:03.851Z,88.50
2022-11-26T23:13:30.361Z,89.63
2022-11-26T23:15:56.851Z,89.17
2022-11-26T23:18:23.450Z,88.69
2022-11-26T23:20:49.877Z,89.30
2022-11-26T23:23:16.622Z,88.36
2022-11-26T23:25:43.074Z,88.73
2022-11-26T23:28:09.765Z,89.06
2022-11-26T23:30:36.319Z,88.82
2022-11-26T23:33:02.819Z,89.81
2022-11-26T23:35:29.343Z,89.04
2022-11-26T23:37:56.055Z,89.25
2022-11-26T23:40:22.648Z,89.92
2022-11-26T23:42:49.141Z,89.62
2022-11-26T23:45:15.718Z,88.85
2022-11-26T23:47:42.171Z,89.08
2022-11-26T23:50:08.773Z,89.73
2022-11-26T23:52:36.178Z,89.03
2022-11-26T23:55:02.746Z,89.69
2022-11-26T23:57:29.305Z,89.58
2022-11-26T23:59:55.798Z,89.40
